Time;durP1;ratioP1;P1;durP2;ratioP2;P2;SDS_P1;SDS_P2;PMS_P1;PMS_P2;Temp;Humidity;BMP_temperature;BMP_pressure;BME280_temperature;BME280_humidity;BME280_pressure;Samples;Min_cycle;Max_cycle;Signal;HPM_P1;HPM_P2
2022/02/07 00:02:00;;;;;;;1.10;1.00;;;4.40;99.90;;;;;;5035026;28;20178;-79
2022/02/07 00:04:31;;;;;;;5.43;1.90;;;4.50;99.90;;;;;;5035061;28;20177;-79
2022/02/07 00:06:56;;;;;;;11.45;1.38;;;4.40;99.90;;;;;;5035094;28;20175;-78
2022/02/07 00:09:22;;;;;;;5.40;1.93;;;4.40;99.90;;;;;;5034664;28;20203;-79
2022/02/07 00:11:48;;;;;;;6.10;1.53;;;4.50;99.90;;;;;;5034778;28;20202;-78
2022/02/07 00:14:13;;;;;;;7.13;1.70;;;4.50;99.90;;;;;;5034767;28;20597;-78
2022/02/07 00:16:40;;;;;;;5.33;1.30;;;4.40;99.90;;;;;;5034707;28;20195;-80
2022/02/07 00:19:10;;;;;;;9.77;1.40;;;4.50;99.90;;;;;;5034264;28;20191;-79
2022/02/07 00:21:36;;;;;;;4.93;2.17;;;4.50;99.90;;;;;;5034690;28;20171;-77
2022/02/07 00:24:01;;;;;;;4.70;1.77;;;4.50;99.90;;;;;;5034510;28;20187;-75
2022/02/07 00:26:27;;;;;;;3.50;1.30;;;4.30;99.90;;;;;;5034600;28;20304;-75
2022/02/07 00:28:54;;;;;;;7.47;2.10;;;4.10;99.90;;;;;;5033773;28;20261;-77
2022/02/07 00:31:19;;;;;;;4.53;2.08;;;3.80;99.90;;;;;;5034760;28;20179;-77
2022/02/07 00:33:45;;;;;;;8.00;2.20;;;3.80;99.90;;;;;;5034600;28;20705;-76
2022/02/07 00:36:13;;;;;;;7.50;2.20;;;3.80;99.90;;;;;;5034466;28;20222;-78
2022/02/07 00:38:42;;;;;;;9.18;2.08;;;3.70;99.90;;;;;;5034104;28;20170;-78
2022/02/07 00:41:18;;;;;;;6.43;1.85;;;3.70;99.90;;;;;;5034330;28;20630;-77
2022/02/07 00:43:46;;;;;;;3.20;1.42;;;3.80;99.90;;;;;;5034442;28;20240;-75
2022/02/07 00:46:14;;;;;;;8.90;3.10;;;3.90;99.90;;;;;;5034258;28;20175;-75
2022/02/07 00:48:40;;;;;;;6.03;1.95;;;4.00;99.90;;;;;;5033946;28;20225;-75
2022/02/07 00:51:07;;;;;;;6.20;1.52;;;3.90;99.90;;;;;;5034183;28;20182;-75
2022/02/07 00:53:33;;;;;;;7.20;2.00;;;3.90;99.90;;;;;;5034180;28;20182;-77
2022/02/07 00:56:00;;;;;;;2.53;1.30;;;3.80;99.90;;;;;;5033910;28;20199;-76
2022/02/07 00:58:26;;;;;;;5.63;1.30;;;3.80;99.90;;;;;;5016262;28;20203;-77
2022/02/07 01:00:52;;;;;;;6.00;1.80;;;3.70;99.90;;;;;;5033658;28;20229;-78
2022/02/07 01:03:19;;;;;;;9.53;1.50;;;3.60;99.90;;;;;;5033969;28;20483;-75
2022/02/07 01:05:45;;;;;;;9.52;1.83;;;3.70;99.90;;;;;;5033876;28;20432;-78
2022/02/07 01:08:11;;;;;;;3.05;1.00;;;3.60;99.90;;;;;;5033659;28;20589;-78
2022/02/07 01:11:01;;;;;;;1.58;0.90;;;3.70;99.90;;;;;;5033400;28;20205;-78
2022/02/07 01:52:02;;;;;;;4.65;1.33;;;3.30;99.90;;;;;;5033446;28;20255;-76
2022/02/07 01:54:40;;;;;;;6.20;1.67;;;3.30;99.90;;;;;;5022415;28;20233;-79
2022/02/07 01:56:36;;;;;;;4.53;1.88;;;3.30;99.90;;;;;;5022167;28;20238;-78
2022/02/07 01:59:02;;;;;;;9.23;1.60;;;3.20;99.90;;;;;;5032902;28;20190;-80
2022/02/07 02:01:29;;;;;;;5.55;2.00;;;3.20;99.90;;;;;;5015402;28;20655;-78
2022/02/07 02:03:54;;;;;;;6.07;2.50;;;3.20;99.90;;;;;;5033066;28;20178;-76
2022/02/07 02:06:22;;;;;;;7.20;1.77;;;3.10;99.90;;;;;;5032976;28;20182;-79
2022/02/07 02:08:49;;;;;;;7.68;2.10;;;3.10;99.90;;;;;;5032456;28;20185;-76
2022/02/07 02:11:14;;;;;;;7.43;1.85;;;3.10;99.90;;;;;;5033110;28;20178;-78
2022/02/07 02:13:58;;;;;;;3.90;0.90;;;3.10;99.90;;;;;;5033162;28;20237;-79
2022/02/07 02:16:32;;;;;;;8.55;2.20;;;3.10;99.90;;;;;;5032915;28;20740;-79
2022/02/07 02:37:47;;;;;;;7.82;1.70;;;3.40;99.90;;;;;;5032795;28;20198;-77
2022/02/07 02:45:37;;;;;;;9.35;2.47;;;3.40;99.90;;;;;;5018151;28;20197;-79
2022/02/07 02:48:08;;;;;;;6.43;1.20;;;3.30;99.90;;;;;;5032820;28;20193;-79
2022/02/07 02:50:36;;;;;;;2.50;1.20;;;3.30;99.90;;;;;;5032415;28;20265;-79
2022/02/07 02:53:07;;;;;;;5.30;1.60;;;3.30;99.90;;;;;;5035457;28;20639;-78
2022/02/07 02:55:34;;;;;;;6.80;1.73;;;3.20;99.90;;;;;;5036404;28;20551;-79
2022/02/07 02:58:00;;;;;;;7.93;1.55;;;3.20;99.90;;;;;;5036336;28;20263;-77
2022/02/07 03:00:28;;;;;;;5.83;1.30;;;3.10;99.90;;;;;;5035952;28;20617;-80
2022/02/07 03:02:53;;;;;;;15.32;2.65;;;3.00;99.90;;;;;;5036137;28;20417;-77
2022/02/07 03:05:19;;;;;;;3.50;1.40;;;3.00;99.90;;;;;;5018534;28;20178;-77
2022/02/07 03:07:45;;;;;;;2.47;1.77;;;2.90;99.90;;;;;;5036302;28;20603;-77
2022/02/07 03:10:21;;;;;;;15.50;1.67;;;2.90;99.90;;;;;;5017901;28;20211;-79
2022/02/07 03:12:59;;;;;;;5.95;1.65;;;3.00;99.90;;;;;;5018353;28;20682;-78
2022/02/07 03:18:09;;;;;;;2.53;1.17;;;2.90;99.90;;;;;;5036252;28;20236;-78
2022/02/07 03:20:35;;;;;;;6.80;1.57;;;2.90;99.90;;;;;;5035529;28;20194;-78
2022/02/07 03:23:01;;;;;;;8.73;2.30;;;2.90;99.90;;;;;;5035775;28;20180;-79
2022/02/07 03:25:26;;;;;;;4.50;0.90;;;2.90;99.90;;;;;;5035561;28;20177;-79
2022/02/07 03:27:52;;;;;;;16.87;2.40;;;2.80;99.90;;;;;;5035776;28;20171;-79
2022/02/07 03:30:17;;;;;;;4.83;0.97;;;2.90;99.90;;;;;;5035314;28;20206;-77
2022/02/07 03:32:43;;;;;;;4.03;1.50;;;2.80;99.90;;;;;;5035754;28;20182;-79
2022/02/07 03:35:09;;;;;;;3.70;1.00;;;2.80;99.90;;;;;;5035551;28;20185;-80
2022/02/07 03:37:35;;;;;;;11.87;1.63;;;2.80;99.90;;;;;;5017800;28;20181;-78
2022/02/07 03:40:01;;;;;;;7.25;1.20;;;2.70;99.90;;;;;;5035018;28;20247;-80
2022/02/07 03:42:26;;;;;;;3.87;1.00;;;2.80;99.90;;;;;;5035524;28;20205;-78
2022/02/07 03:44:52;;;;;;;3.10;1.07;;;2.70;99.90;;;;;;5035422;28;20412;-80
2022/02/07 03:47:17;;;;;;;3.70;1.30;;;2.70;99.90;;;;;;5017464;28;20311;-77
2022/02/07 03:49:43;;;;;;;7.93;1.57;;;2.70;99.90;;;;;;5017094;28;20621;-76
2022/02/07 03:52:09;;;;;;;1.20;0.87;;;2.70;99.90;;;;;;5017620;28;20189;-79
2022/02/07 03:54:35;;;;;;;9.30;1.93;;;2.70;99.90;;;;;;5035181;28;20259;-77
2022/02/07 03:57:01;;;;;;;3.58;1.45;;;2.70;99.90;;;;;;5035285;28;20530;-81
2022/02/07 03:59:27;;;;;;;8.68;1.88;;;2.70;99.90;;;;;;5034712;28;20575;-80
2022/02/07 04:01:53;;;;;;;3.80;0.83;;;2.70;99.90;;;;;;5035313;28;20189;-79
2022/02/07 04:04:18;;;;;;;5.93;1.33;;;2.60;99.90;;;;;;5016802;28;20529;-79
2022/02/07 04:06:44;;;;;;;7.47;1.70;;;2.60;99.90;;;;;;5035090;28;20206;-77
2022/02/07 04:09:13;;;;;;;2.67;1.37;;;2.70;99.90;;;;;;5034527;28;20218;-79
2022/02/07 04:11:50;;;;;;;5.97;1.40;;;2.70;99.90;;;;;;5034802;28;20174;-78
2022/02/07 04:14:22;;;;;;;6.70;1.58;;;2.60;99.90;;;;;;5034873;28;20223;-78
2022/02/07 04:16:48;;;;;;;7.10;1.45;;;2.60;99.90;;;;;;5035045;28;20548;-77
2022/02/07 04:19:18;;;;;;;3.70;1.03;;;2.60;99.90;;;;;;5034433;28;20201;-78
2022/02/07 04:21:45;;;;;;;4.50;1.30;;;2.50;99.90;;;;;;5034627;28;20522;-79
2022/02/07 04:24:11;;;;;;;3.03;1.17;;;2.50;99.90;;;;;;5034629;28;20177;-79
2022/02/07 04:26:37;;;;;;;10.60;2.00;;;2.60;99.90;;;;;;5034583;28;20301;-82
2022/02/07 04:29:03;;;;;;;23.33;3.80;;;2.60;99.90;;;;;;5034228;28;20276;-80
2022/02/07 04:31:29;;;;;;;5.20;1.58;;;2.60;99.90;;;;;;5034406;28;20446;-80
2022/02/07 04:33:55;;;;;;;4.47;1.80;;;2.70;99.90;;;;;;5034367;28;20177;-81
2022/02/07 04:36:21;;;;;;;8.88;1.73;;;2.70;99.90;;;;;;5016717;28;20556;-80
2022/02/07 04:38:47;;;;;;;9.13;2.07;;;2.70;99.90;;;;;;5034052;28;20176;-79
2022/02/07 04:41:13;;;;;;;4.13;1.40;;;2.70;99.90;;;;;;5034305;28;20433;-81
2022/02/07 04:43:45;;;;;;;5.07;1.60;;;2.50;99.90;;;;;;5034535;28;20261;-77
2022/02/07 04:46:39;;;;;;;7.07;1.73;;;2.50;99.90;;;;;;5034191;28;20244;-80
2022/02/07 04:52:22;;;;;;;7.32;2.53;;;2.50;99.90;;;;;;5034339;28;20193;-79
2022/02/07 05:00:21;;;;;;;23.83;2.38;;;2.40;99.90;;;;;;5033953;28;20236;-80
2022/02/07 05:13:47;;;;;;;6.05;1.73;;;2.30;99.90;;;;;;5033722;28;20174;-78
2022/02/07 05:16:30;;;;;;;9.93;3.50;;;2.30;99.90;;;;;;5033540;28;20178;-80
2022/02/07 05:18:57;;;;;;;14.13;2.20;;;2.30;99.90;;;;;;5033380;28;20169;-80
2022/02/07 05:21:24;;;;;;;9.43;2.15;;;2.30;99.90;;;;;;5033603;28;20182;-81
2022/02/07 05:23:50;;;;;;;7.78;1.88;;;2.30;99.90;;;;;;5033555;28;20236;-80
2022/02/07 05:26:17;;;;;;;10.45;1.85;;;2.30;99.90;;;;;;5033348;28;20782;-81
2022/02/07 05:28:43;;;;;;;10.50;2.50;;;2.40;99.90;;;;;;5033241;28;20171;-79
2022/02/07 05:31:10;;;;;;;14.63;2.50;;;2.50;99.90;;;;;;5015687;28;20201;-81
2022/02/07 05:33:38;;;;;;;16.02;2.25;;;2.50;99.90;;;;;;5033515;28;20205;-78
2022/02/07 05:36:04;;;;;;;12.32;2.67;;;2.60;99.90;;;;;;5033256;28;20717;-80
2022/02/07 05:38:30;;;;;;;8.67;1.73;;;2.70;99.90;;;;;;5033389;28;20269;-78
2022/02/07 05:41:00;;;;;;;7.57;2.05;;;2.70;99.90;;;;;;5033124;28;20459;-79
2022/02/07 05:43:26;;;;;;;12.88;2.75;;;2.90;99.90;;;;;;5033523;28;20175;-77
2022/02/07 05:45:51;;;;;;;17.13;2.00;;;2.90;99.90;;;;;;5033317;28;20267;-81
2022/02/07 05:48:17;;;;;;;9.70;2.00;;;3.00;99.90;;;;;;5033173;28;20186;-80
2022/02/07 05:50:43;;;;;;;11.77;1.67;;;3.00;99.90;;;;;;5032849;28;20854;-79
2022/02/07 05:53:08;;;;;;;7.93;2.83;;;3.10;99.90;;;;;;5033171;28;20452;-80
2022/02/07 05:55:34;;;;;;;12.10;2.20;;;3.20;99.90;;;;;;5033142;28;20221;-79
2022/02/07 05:58:00;;;;;;;6.07;1.90;;;3.10;99.90;;;;;;5033101;28;20210;-77
2022/02/07 06:00:32;;;;;;;7.93;2.07;;;3.20;99.90;;;;;;5015329;28;20202;-77
2022/02/07 06:02:58;;;;;;;11.27;1.95;;;3.20;99.90;;;;;;5033318;28;20178;-78
2022/02/07 06:05:24;;;;;;;9.55;2.45;;;3.30;99.90;;;;;;5033168;28;20178;-79
2022/02/07 06:07:49;;;;;;;13.43;2.70;;;3.20;99.90;;;;;;5033056;28;20196;-81
2022/02/07 06:10:15;;;;;;;7.00;2.70;;;3.20;99.90;;;;;;5032476;28;20271;-79
2022/02/07 06:12:43;;;;;;;6.73;1.73;;;3.20;99.90;;;;;;5015173;28;20227;-83
2022/02/07 06:15:11;;;;;;;12.15;3.10;;;3.30;99.90;;;;;;5016010;28;20252;-82
2022/02/07 06:17:40;;;;;;;17.60;3.20;;;3.30;99.90;;;;;;5016529;28;20183;-82
2022/02/07 06:20:08;;;;;;;7.80;1.88;;;3.30;99.90;;;;;;5016569;28;20209;-82
2022/02/07 06:22:36;;;;;;;10.40;2.85;;;3.30;99.90;;;;;;5017359;28;20209;-84
2022/02/07 06:25:05;;;;;;;8.93;1.83;;;3.40;99.90;;;;;;5034829;28;20211;-81
2022/02/07 06:27:32;;;;;;;6.68;2.30;;;3.40;99.90;;;;;;5037282;28;20198;-84
2022/02/07 06:30:00;;;;;;;19.38;2.50;;;3.50;99.90;;;;;;5020443;28;20201;-86
2022/02/07 06:32:28;;;;;;;10.02;1.95;;;3.50;99.90;;;;;;5038382;28;20596;-86
2022/02/07 06:34:53;;;;;;;6.13;1.73;;;3.50;99.90;;;;;;5038037;28;20173;-83
2022/02/07 06:37:19;;;;;;;14.90;2.27;;;3.60;99.90;;;;;;5037761;28;20678;-82
2022/02/07 06:39:45;;;;;;;12.87;2.40;;;3.60;99.90;;;;;;5036926;28;20568;-83
2022/02/07 06:42:10;;;;;;;7.03;1.97;;;3.60;99.90;;;;;;5003719;28;20175;-85
2022/02/07 06:44:36;;;;;;;12.90;1.97;;;3.60;99.90;;;;;;5003099;28;20663;-85
2022/02/07 06:47:02;;;;;;;8.67;2.07;;;3.70;99.90;;;;;;5037094;28;20207;-85
2022/02/07 06:49:27;;;;;;;16.00;2.30;;;3.70;99.90;;;;;;5019163;28;20213;-84
2022/02/07 06:51:54;;;;;;;11.50;2.40;;;3.70;99.90;;;;;;5037939;28;20447;-83
2022/02/07 06:54:20;;;;;;;8.00;2.15;;;3.70;99.90;;;;;;5020213;28;20183;-84
2022/02/07 06:56:48;;;;;;;3.87;1.77;;;3.70;99.90;;;;;;5018761;28;20183;-83
2022/02/07 06:59:17;;;;;;;4.97;1.30;;;3.70;99.90;;;;;;5018797;28;20245;-84
2022/02/07 07:01:42;;;;;;;6.18;1.67;;;3.60;99.90;;;;;;5036463;28;20175;-85
2022/02/07 07:04:08;;;;;;;8.50;2.17;;;3.70;99.90;;;;;;5036547;28;20189;-86
2022/02/07 07:06:35;;;;;;;8.40;2.30;;;3.70;99.90;;;;;;5002362;28;20466;-85
2022/02/07 07:09:01;;;;;;;10.68;2.20;;;3.60;99.90;;;;;;5035941;28;20598;-86
2022/02/07 07:11:28;;;;;;;11.20;2.30;;;3.70;99.90;;;;;;5018769;28;20179;-83
2022/02/07 07:14:01;;;;;;;3.72;1.88;;;3.50;99.90;;;;;;5018662;28;20181;-85
2022/02/07 07:16:39;;;;;;;5.10;1.63;;;3.50;99.90;;;;;;4987371;28;20179;-85
2022/02/07 07:19:05;;;;;;;5.50;1.63;;;3.50;99.90;;;;;;5020136;28;20194;-85
2022/02/07 07:21:32;;;;;;;11.80;1.95;;;3.50;99.90;;;;;;5018207;28;20179;-85
2022/02/07 07:23:58;;;;;;;12.73;1.85;;;3.60;99.90;;;;;;5001992;28;20278;-85
2022/02/07 07:26:26;;;;;;;7.13;2.17;;;3.60;99.90;;;;;;5018303;28;20202;-84
2022/02/07 07:28:53;;;;;;;6.82;2.03;;;3.60;99.90;;;;;;5017803;28;20179;-86
2022/02/07 07:31:20;;;;;;;9.98;3.20;;;3.70;99.90;;;;;;5017839;28;20527;-86
2022/02/07 07:34:15;;;;;;;10.45;5.05;;;3.70;99.90;;;;;;5035599;28;20178;-84
2022/02/07 07:36:41;;;;;;;9.35;1.88;;;3.80;99.90;;;;;;5005767;28;20190;-83
2022/02/07 07:39:07;;;;;;;10.43;2.22;;;3.80;99.90;;;;;;5020271;28;20210;-83
2022/02/07 07:41:36;;;;;;;5.80;2.23;;;3.90;99.90;;;;;;5004647;28;20546;-85
2022/02/07 07:44:01;;;;;;;8.63;1.95;;;3.80;99.90;;;;;;5020457;28;20183;-84
2022/02/07 07:46:30;;;;;;;16.43;3.30;;;3.80;99.90;;;;;;5036575;28;20213;-84
2022/02/07 07:49:02;;;;;;;12.13;2.05;;;3.80;99.90;;;;;;5002212;28;20685;-84
2022/02/07 08:02:11;;;;;;;8.38;2.30;;;4.00;99.90;;;;;;5035624;28;20602;-83
2022/02/07 08:04:39;;;;;;;9.52;2.15;;;4.00;99.90;;;;;;5035260;28;20254;-82
2022/02/07 08:12:03;;;;;;;11.27;1.90;;;4.10;99.90;;;;;;5035400;28;20547;-80
2022/02/07 08:14:30;;;;;;;12.82;2.28;;;4.00;99.90;;;;;;5017678;28;20258;-83
2022/02/07 08:16:55;;;;;;;10.55;3.15;;;4.10;99.90;;;;;;5017424;28;20182;-80
2022/02/07 08:19:23;;;;;;;12.70;2.80;;;4.10;99.90;;;;;;5016904;28;20195;-82
2022/02/07 08:21:49;;;;;;;11.65;2.60;;;4.20;99.90;;;;;;5034875;28;20171;-84
2022/02/07 08:24:14;;;;;;;18.83;2.80;;;4.30;99.90;;;;;;5034948;28;20183;-81
2022/02/07 08:26:40;;;;;;;12.00;1.80;;;4.20;99.90;;;;;;5017105;28;20206;-84
2022/02/07 08:29:07;;;;;;;7.50;2.20;;;4.30;99.90;;;;;;5016753;28;20750;-83
2022/02/07 08:31:33;;;;;;;10.60;2.50;;;4.30;99.90;;;;;;5017005;28;20424;-83
2022/02/07 08:33:58;;;;;;;7.60;2.50;;;4.30;99.90;;;;;;5034541;28;20530;-82
2022/02/07 08:36:24;;;;;;;6.83;2.70;;;4.30;99.90;;;;;;5016827;28;20797;-83
2022/02/07 08:38:58;;;;;;;8.43;2.73;;;4.30;99.90;;;;;;5035028;28;20175;-83
2022/02/07 08:41:24;;;;;;;6.88;2.88;;;4.30;99.90;;;;;;5034273;28;20217;-83
2022/02/07 08:43:51;;;;;;;13.88;2.78;;;4.40;99.90;;;;;;5016386;28;20602;-84
2022/02/07 08:46:18;;;;;;;6.45;1.55;;;4.40;99.90;;;;;;5016598;28;20206;-84
2022/02/07 08:48:43;;;;;;;13.77;2.85;;;4.40;99.90;;;;;;5016198;28;20225;-84
2022/02/07 08:51:09;;;;;;;11.40;3.30;;;4.40;99.90;;;;;;5034022;28;20175;-82
2022/02/07 08:53:42;;;;;;;13.15;2.47;;;4.40;99.90;;;;;;5034557;28;20171;-81
2022/02/07 08:56:09;;;;;;;9.07;2.13;;;4.50;99.90;;;;;;4975044;28;20205;-83
2022/02/07 08:58:41;;;;;;;12.23;3.65;;;4.60;99.90;;;;;;5033892;28;20190;-84
2022/02/07 09:01:40;;;;;;;17.90;4.07;;;4.60;99.90;;;;;;5017110;28;20175;-82
2022/02/07 09:06:35;;;;;;;9.90;2.50;;;4.60;99.90;;;;;;5034106;28;20649;-83
2022/02/07 09:11:38;;;;;;;6.82;2.35;;;4.60;99.90;;;;;;5059248;22;20236;-81
2022/02/07 09:14:10;;;;;;;5.85;2.20;;;4.60;99.90;;;;;;5054049;28;20653;-81
2022/02/07 09:16:38;;;;;;;12.63;2.55;;;4.70;99.90;;;;;;5053751;28;20228;-81
2022/02/07 09:19:04;;;;;;;9.63;2.40;;;4.70;99.90;;;;;;5052200;28;20217;-82
2022/02/07 09:21:30;;;;;;;12.63;2.20;;;4.70;99.90;;;;;;5053645;28;20205;-82
2022/02/07 09:23:57;;;;;;;25.10;4.27;;;4.60;99.90;;;;;;5053631;28;20412;-81
2022/02/07 09:26:23;;;;;;;8.90;2.85;;;4.70;99.90;;;;;;5053644;28;20556;-82
2022/02/07 09:28:49;;;;;;;8.45;2.47;;;4.70;99.90;;;;;;5053342;28;20178;-82
2022/02/07 09:31:15;;;;;;;14.10;2.53;;;4.80;99.90;;;;;;5053559;28;20182;-81
2022/02/07 09:34:12;;;;;;;16.73;2.88;;;4.80;99.90;;;;;;5053341;28;20170;-81
2022/02/07 09:36:38;;;;;;;9.60;2.72;;;4.90;99.90;;;;;;5053324;28;20196;-81
2022/02/07 09:39:05;;;;;;;12.20;2.83;;;5.10;99.90;;;;;;5052994;28;20210;-80
2022/02/07 09:41:33;;;;;;;10.13;2.13;;;5.30;99.90;;;;;;5053391;28;20536;-81
2022/02/07 09:44:01;;;;;;;6.65;2.38;;;5.40;99.90;;;;;;5053247;28;20538;-81
2022/02/07 09:47:00;;;;;;;11.60;3.22;;;5.30;99.90;;;;;;5052010;28;20273;-83
2022/02/07 09:49:19;;;;;;;9.23;3.40;;;5.30;99.90;;;;;;5050753;28;20210;-81
2022/02/07 09:51:48;;;;;;;7.03;1.83;;;5.30;99.90;;;;;;5053131;28;20182;-81
2022/02/07 09:54:21;;;;;;;22.10;3.90;;;5.40;99.90;;;;;;5053023;28;20405;-82
2022/02/07 09:56:49;;;;;;;7.13;2.55;;;5.50;99.90;;;;;;5051853;28;20553;-81
2022/02/07 09:59:16;;;;;;;7.80;2.80;;;5.50;99.90;;;;;;5035088;28;20209;-82
2022/02/07 10:01:47;;;;;;;14.30;3.25;;;5.40;99.90;;;;;;5052621;28;20600;-80
2022/02/07 10:04:43;;;;;;;4.95;1.95;;;5.40;99.90;;;;;;5052824;28;20182;-82
2022/02/07 10:15:58;;;;;;;13.02;2.72;;;5.90;99.90;;;;;;5011158;28;20270;-82
2022/02/07 10:18:41;;;;;;;13.40;3.10;;;5.80;99.90;;;;;;5047029;28;20190;-82
2022/02/07 10:39:58;;;;;;;8.43;4.03;;;5.90;99.90;;;;;;5052496;28;20195;-82
2022/02/07 10:44:57;;;;;;;13.70;3.50;;;6.10;99.90;;;;;;5052598;28;20178;-79
2022/02/07 10:47:28;;;;;;;17.88;3.88;;;6.20;99.90;;;;;;5051382;28;20209;-81
2022/02/07 10:50:12;;;;;;;6.75;2.30;;;6.10;99.90;;;;;;5052469;28;20716;-79
2022/02/07 10:52:47;;;;;;;15.18;3.05;;;6.10;99.90;;;;;;5052654;28;20642;-82
2022/02/07 10:55:28;;;;;;;10.98;3.35;;;6.30;99.90;;;;;;5051259;28;20201;-82
2022/02/07 10:57:58;;;;;;;8.77;2.17;;;6.40;99.90;;;;;;5052598;28;20198;-81
2022/02/07 11:00:37;;;;;;;13.20;3.38;;;6.30;99.90;;;;;;5052213;28;20201;-80
2022/02/07 11:05:40;;;;;;;10.45;1.98;;;6.30;99.90;;;;;;5052782;28;20179;-80
2022/02/07 11:08:21;;;;;;;5.72;2.42;;;6.30;99.90;;;;;;5051533;28;20178;-82
2022/02/07 11:11:08;;;;;;;9.13;2.90;;;6.40;99.90;;;;;;5050933;28;20256;-81
2022/02/07 11:14:05;;;;;;;12.10;3.17;;;6.40;99.90;;;;;;5054833;28;20178;-81
2022/02/07 11:19:30;;;;;;;8.48;2.00;;;6.50;99.90;;;;;;5054383;28;20210;-79
2022/02/07 11:25:13;;;;;;;8.93;3.20;;;6.70;99.90;;;;;;5055930;28;20605;-78
2022/02/07 11:27:43;;;;;;;7.93;2.20;;;6.80;99.90;;;;;;5054560;28;20681;-82
2022/02/07 11:30:14;;;;;;;13.13;3.15;;;6.70;99.90;;;;;;5054290;28;20198;-81
2022/02/07 11:32:48;;;;;;;24.95;2.28;;;6.90;99.90;;;;;;5055810;28;20178;-78
2022/02/07 11:35:14;;;;;;;8.13;3.13;;;7.10;99.90;;;;;;5054205;28;20174;-80
2022/02/07 11:37:41;;;;;;;8.73;2.55;;;7.20;99.90;;;;;;5055660;28;20248;-79
2022/02/07 11:40:29;;;;;;;15.55;2.60;;;7.30;99.90;;;;;;5055206;28;20685;-83
2022/02/07 11:43:16;;;;;;;8.45;2.30;;;7.40;99.90;;;;;;5055401;28;20185;-82
2022/02/07 11:46:03;;;;;;;8.85;2.35;;;7.40;99.90;;;;;;5054056;28;20186;-80
2022/02/07 11:48:37;;;;;;;5.47;2.22;;;7.10;99.90;;;;;;5054619;28;20177;-79
2022/02/07 11:51:05;;;;;;;2.17;1.55;;;7.00;99.90;;;;;;5055373;28;20162;-80
2022/02/07 11:53:43;;;;;;;10.30;3.38;;;7.00;99.90;;;;;;5055302;28;20168;-81
2022/02/07 11:56:17;;;;;;;10.65;2.78;;;7.00;99.90;;;;;;5055385;28;20219;-81
2022/02/07 11:59:14;;;;;;;13.80;2.70;;;7.10;99.90;;;;;;5053888;28;20650;-79
2022/02/07 12:01:47;;;;;;;7.47;2.20;;;7.00;99.90;;;;;;5055605;28;20645;-80
2022/02/07 12:04:38;;;;;;;11.43;2.85;;;6.90;99.90;;;;;;5055096;28;20582;-82
2022/02/07 12:07:17;;;;;;;18.77;3.58;;;6.80;99.90;;;;;;5054771;28;20246;-81
2022/02/07 12:12:56;;;;;;;11.15;2.38;;;6.70;99.90;;;;;;5046075;28;20214;-79
2022/02/07 12:15:33;;;;;;;11.05;2.58;;;6.80;99.90;;;;;;5054600;28;20171;-80
2022/02/07 12:18:16;;;;;;;8.75;2.55;;;6.70;99.90;;;;;;5054719;28;20155;-80
2022/02/07 12:20:50;;;;;;;13.23;2.88;;;6.70;99.90;;;;;;5053144;28;20256;-79
2022/02/07 12:23:18;;;;;;;10.88;3.15;;;6.70;99.90;;;;;;5053591;28;20599;-81
2022/02/07 12:25:57;;;;;;;9.65;2.50;;;6.90;99.90;;;;;;5053836;28;20189;-80
2022/02/07 12:31:08;;;;;;;5.75;2.63;;;7.30;99.90;;;;;;5054477;28;20202;-81
2022/02/07 12:33:35;;;;;;;12.18;2.95;;;7.40;99.90;;;;;;5069911;28;20178;-82
2022/02/07 12:36:01;;;;;;;7.93;2.10;;;7.40;99.90;;;;;;5054514;28;20178;-80
2022/02/07 12:38:35;;;;;;;9.45;2.83;;;7.40;99.90;;;;;;5054435;28;20186;-81
2022/02/07 12:41:05;;;;;;;15.60;3.38;;;7.30;99.90;;;;;;5053590;28;20314;-81
2022/02/07 12:43:35;;;;;;;6.65;2.40;;;7.30;99.90;;;;;;5054315;28;20249;-80
2022/02/07 12:46:06;;;;;;;9.05;2.85;;;7.30;99.90;;;;;;5054375;28;20212;-82
2022/02/07 12:48:35;;;;;;;5.78;2.38;;;7.10;99.90;;;;;;5054125;28;20177;-82
2022/02/07 12:51:01;;;;;;;7.65;2.50;;;7.10;99.90;;;;;;5054247;28;20186;-80
2022/02/07 12:53:29;;;;;;;9.52;3.20;;;7.10;99.90;;;;;;5054110;28;20167;-82
2022/02/07 12:55:57;;;;;;;14.35;3.08;;;7.20;99.90;;;;;;5054047;28;20516;-82
2022/02/07 12:58:37;;;;;;;10.63;2.88;;;7.30;99.90;;;;;;5053965;28;20253;-82
2022/02/07 13:01:22;;;;;;;7.20;2.95;;;7.20;99.90;;;;;;5054356;28;20169;-82
2022/02/07 13:04:07;;;;;;;8.68;2.53;;;7.20;99.90;;;;;;5053872;28;20177;-79
2022/02/07 13:06:37;;;;;;;5.68;2.38;;;7.10;99.90;;;;;;5054082;28;20195;-79
2022/02/07 13:09:17;;;;;;;5.72;2.47;;;6.90;99.90;;;;;;5053514;28;20650;-79
2022/02/07 13:12:00;;;;;;;9.95;3.50;;;6.80;99.90;;;;;;5053635;28;20620;-80
2022/02/07 13:14:27;;;;;;;10.50;3.10;;;6.70;99.90;;;;;;5053757;28;20158;-80
2022/02/07 13:16:53;;;;;;;7.35;2.80;;;6.70;99.90;;;;;;5053834;28;20681;-81
2022/02/07 13:19:20;;;;;;;6.55;2.95;;;6.70;99.90;;;;;;5053409;28;20206;-79
2022/02/07 13:21:48;;;;;;;9.82;3.00;;;6.70;99.90;;;;;;5052412;28;20645;-80
2022/02/07 13:24:17;;;;;;;8.35;3.15;;;6.70;99.90;;;;;;5052226;28;20652;-79
2022/02/07 13:26:48;;;;;;;11.57;3.13;;;7.00;99.90;;;;;;5053520;28;20705;-82
2022/02/07 13:29:28;;;;;;;9.40;2.88;;;7.10;99.90;;;;;;5053088;28;20189;-79
2022/02/07 13:32:00;;;;;;;11.50;2.25;;;7.10;99.90;;;;;;5053457;28;20172;-81
2022/02/07 13:34:28;;;;;;;6.90;2.10;;;7.00;99.90;;;;;;5053494;28;20615;-79
2022/02/07 13:37:15;;;;;;;13.50;3.03;;;6.90;99.90;;;;;;5052495;28;20174;-79
2022/02/07 13:40:00;;;;;;;6.55;2.38;;;7.00;99.90;;;;;;5053136;28;20600;-79
2022/02/07 13:42:32;;;;;;;13.38;2.78;;;7.00;99.90;;;;;;5053585;28;20182;-79
2022/02/07 13:44:59;;;;;;;8.30;2.17;;;7.30;99.90;;;;;;5053422;28;20181;-81
2022/02/07 13:47:26;;;;;;;11.05;2.75;;;7.40;99.90;;;;;;5053289;28;20201;-81
2022/02/07 13:50:16;;;;;;;15.63;3.00;;;7.40;99.90;;;;;;5052978;28;20260;-81
2022/02/07 13:52:47;;;;;;;5.50;1.90;;;7.50;99.90;;;;;;5053322;28;20162;-83
2022/02/07 13:55:20;;;;;;;8.25;2.30;;;7.40;99.90;;;;;;5053426;28;20257;-81
2022/02/07 13:58:00;;;;;;;7.25;1.73;;;7.40;99.90;;;;;;5053179;28;20201;-80
2022/02/07 14:00:33;;;;;;;13.85;2.72;;;7.30;99.90;;;;;;5052812;28;20202;-79
2022/02/07 14:03:19;;;;;;;8.57;1.70;;;7.40;99.90;;;;;;5053142;28;20208;-79
2022/02/07 14:05:56;;;;;;;4.85;2.05;;;7.40;99.90;;;;;;5051712;28;20264;-81
2022/02/07 14:08:37;;;;;;;5.80;2.50;;;7.50;99.90;;;;;;5052908;28;20174;-80
2022/02/07 14:11:08;;;;;;;5.65;1.73;;;7.40;99.90;;;;;;5052931;28;20193;-81
2022/02/07 14:13:35;;;;;;;8.65;1.85;;;7.40;99.90;;;;;;5053066;28;20173;-79
2022/02/07 14:16:02;;;;;;;10.50;1.83;;;7.40;99.90;;;;;;5052961;28;20170;-79
2022/02/07 14:18:30;;;;;;;10.88;1.70;;;7.50;99.90;;;;;;5053030;28;20173;-79
2022/02/07 14:20:56;;;;;;;7.82;2.13;;;7.80;99.90;;;;;;5052655;28;20232;-78
2022/02/07 14:23:22;;;;;;;5.10;1.73;;;8.00;99.90;;;;;;5051593;28;20209;-80
2022/02/07 14:25:53;;;;;;;4.50;2.30;;;8.10;99.90;;;;;;5053018;28;20220;-79
2022/02/07 14:28:19;;;;;;;6.63;1.35;;;7.90;99.90;;;;;;5052841;28;20175;-80
2022/02/07 14:30:45;;;;;;;9.80;1.80;;;7.80;99.90;;;;;;5052693;28;20201;-81
2022/02/07 14:33:11;;;;;;;4.83;1.60;;;7.90;99.90;;;;;;5052892;28;20412;-78
2022/02/07 14:35:37;;;;;;;8.73;1.92;;;8.30;99.90;;;;;;5051529;28;20786;-80
2022/02/07 14:38:04;;;;;;;9.40;2.13;;;8.50;99.90;;;;;;5052817;28;20261;-79
2022/02/07 14:40:31;;;;;;;6.60;1.90;;;8.70;99.90;;;;;;5052310;28;20197;-82
2022/02/07 14:42:58;;;;;;;12.00;1.80;;;8.70;99.90;;;;;;5052880;28;20642;-79
2022/02/07 14:45:32;;;;;;;7.22;2.42;;;8.90;99.90;;;;;;5052687;28;20174;-77
2022/02/07 14:48:01;;;;;;;6.13;2.13;;;8.80;99.90;;;;;;5052753;28;20260;-80
2022/02/07 14:50:28;;;;;;;9.98;2.25;;;9.00;99.90;;;;;;5056124;28;20678;-80
2022/02/07 14:52:55;;;;;;;9.27;2.00;;;9.10;99.90;;;;;;5057186;28;20167;-82
2022/02/07 14:55:22;;;;;;;11.45;1.90;;;9.10;99.90;;;;;;5055343;28;20661;-80
2022/02/07 14:57:48;;;;;;;11.15;1.60;;;8.80;99.90;;;;;;5061164;28;20186;-81
2022/02/07 15:00:20;;;;;;;5.25;1.65;;;8.50;99.90;;;;;;5056238;28;20670;-80
2022/02/07 15:02:47;;;;;;;6.70;1.60;;;8.60;99.90;;;;;;5056322;28;20572;-80
2022/02/07 15:05:13;;;;;;;8.65;1.70;;;8.40;99.90;;;;;;5056187;28;20178;-80
2022/02/07 15:07:39;;;;;;;4.72;1.50;;;8.30;99.90;;;;;;5055032;28;20309;-79
2022/02/07 15:10:07;;;;;;;9.07;1.70;;;8.20;99.90;;;;;;5055710;28;20291;-80
2022/02/07 15:12:33;;;;;;;9.13;2.63;;;8.00;99.90;;;;;;5056288;28;20166;-79
2022/02/07 15:15:00;;;;;;;2.75;1.20;;;8.10;99.90;;;;;;5055028;28;20690;-81
2022/02/07 15:17:28;;;;;;;8.10;2.13;;;8.20;99.90;;;;;;5056034;28;20257;-80
2022/02/07 15:19:58;;;;;;;5.82;1.45;;;8.20;99.90;;;;;;5038146;28;20202;-82
2022/02/07 15:22:23;;;;;;;5.28;1.95;;;7.90;99.90;;;;;;5056214;28;20170;-79
2022/02/07 15:24:50;;;;;;;8.47;1.97;;;7.80;99.90;;;;;;5057320;28;20662;-81
2022/02/07 15:27:16;;;;;;;5.85;1.75;;;7.70;99.90;;;;;;5056432;28;20741;-79
2022/02/07 15:29:43;;;;;;;6.90;2.03;;;7.70;99.90;;;;;;5055498;28;20232;-82
2022/02/07 15:34:47;;;;;;;7.95;2.30;;;7.70;99.90;;;;;;5055987;28;20162;-82
2022/02/07 15:37:12;;;;;;;5.25;1.67;;;7.70;99.90;;;;;;5055666;28;20174;-80
2022/02/07 15:39:38;;;;;;;4.83;1.77;;;7.60;99.90;;;;;;5055434;28;20250;-81